createdAt,value
2017-01-18T00:00:12.199Z,0
2017-01-18T00:00:52.678Z,0
2017-01-18T00:01:47.851Z,0
2017-01-18T00:02:28.349Z,0
2017-01-18T00:03:08.867Z,0
2017-01-18T00:03:49.355Z,0
2017-01-18T00:04:29.839Z,0
2017-01-18T00:05:10.327Z,0
2017-01-18T00:05:50.838Z,0
2017-01-18T00:06:31.340Z,0
2017-01-18T00:07:11.838Z,0
2017-01-18T00:07:52.290Z,0
2017-01-18T00:08:32.776Z,0
2017-01-18T00:09:13.312Z,0
2017-01-18T00:09:53.776Z,0
2017-01-18T00:10:34.301Z,0
2017-01-18T00:11:14.784Z,0
2017-01-18T00:11:55.306Z,0
2017-01-18T00:12:35.767Z,0
2017-01-18T00:13:16.271Z,0
2017-01-18T00:13:56.761Z,0
2017-01-18T00:14:37.275Z,0
2017-01-18T00:15:17.720Z,0
2017-01-18T00:15:58.220Z,0
2017-01-18T00:16:38.754Z,0
2017-01-18T00:17:19.288Z,0
2017-01-18T00:17:59.794Z,0
2017-01-18T00:18:40.335Z,0
2017-01-18T00:19:20.825Z,0
2017-01-18T00:20:01.305Z,0
2017-01-18T00:20:41.778Z,0
2017-01-18T00:21:22.279Z,0
2017-01-18T00:22:02.738Z,0
2017-01-18T00:22:43.273Z,0
2017-01-18T00:23:23.757Z,0
2017-01-18T00:24:04.242Z,0
2017-01-18T00:24:44.741Z,0
2017-01-18T00:25:25.290Z,0
2017-01-18T00:26:05.757Z,0
2017-01-18T00:26:46.854Z,0
2017-01-18T00:27:27.369Z,0
2017-01-18T00:28:07.907Z,0
2017-01-18T00:28:48.411Z,0
2017-01-18T00:29:28.915Z,0
2017-01-18T00:30:09.417Z,0
2017-01-18T00:30:49.880Z,0
2017-01-18T00:31:30.404Z,0
2017-01-18T00:32:10.903Z,0
2017-01-18T00:32:51.389Z,0
2017-01-18T00:33:31.849Z,0
2017-01-18T00:34:12.353Z,0
2017-01-18T00:34:52.865Z,0
2017-01-18T00:35:33.319Z,0
2017-01-18T00:36:13.796Z,0
2017-01-18T00:36:54.264Z,0
2017-01-18T00:37:34.783Z,0
2017-01-18T00:38:15.318Z,0
2017-01-18T00:38:56.670Z,0
2017-01-18T00:39:37.129Z,0
2017-01-18T00:40:17.626Z,0
2017-01-18T00:40:58.160Z,0
2017-01-18T00:41:38.617Z,0
2017-01-18T00:42:19.139Z,0
2017-01-18T00:42:59.610Z,0
2017-01-18T00:43:40.125Z,0
2017-01-18T00:44:20.580Z,0
2017-01-18T00:45:01.109Z,0
2017-01-18T00:45:41.555Z,0
2017-01-18T00:46:22.044Z,0
2017-01-18T00:47:02.539Z,0
2017-01-18T00:47:43.037Z,0
2017-01-18T00:48:24.068Z,0
2017-01-18T00:49:04.509Z,0
2017-01-18T00:49:45.010Z,0
2017-01-18T00:50:26.249Z,0
2017-01-18T00:51:06.835Z,0
2017-01-18T00:51:47.364Z,0
2017-01-18T00:52:27.857Z,0
2017-01-18T00:53:09.063Z,0
2017-01-18T00:53:50.454Z,0
2017-01-18T00:54:30.930Z,0
2017-01-18T00:55:12.325Z,0
2017-01-18T00:55:52.816Z,0
2017-01-18T00:56:33.297Z,0
2017-01-18T00:57:13.812Z,0
2017-01-18T00:57:54.343Z,0
2017-01-18T00:58:34.803Z,0
2017-01-18T00:59:15.330Z,0
2017-01-18T00:59:55.815Z,0
2017-01-18T01:00:37.250Z,0
2017-01-18T01:01:17.736Z,0
2017-01-18T01:01:58.202Z,0
2017-01-18T01:02:38.708Z,0
2017-01-18T01:03:19.218Z,0
2017-01-18T01:03:59.725Z,0
2017-01-18T01:04:40.198Z,0
2017-01-18T01:05:20.696Z,0
2017-01-18T01:06:01.175Z,0
2017-01-18T01:06:41.691Z,0
2017-01-18T01:07:22.191Z,0
2017-01-18T01:08:02.672Z,0
2017-01-18T01:08:43.150Z,0
2017-01-18T01:09:23.658Z,0
2017-01-18T01:10:04.128Z,0
2017-01-18T01:10:44.633Z,0
2017-01-18T01:11:25.118Z,0
2017-01-18T01:12:05.623Z,0
2017-01-18T01:12:46.117Z,0
2017-01-18T01:13:26.579Z,0
2017-01-18T01:14:07.036Z,0
2017-01-18T01:14:47.536Z,0
2017-01-18T01:15:28.033Z,0
2017-01-18T01:16:08.507Z,0
2017-01-18T01:16:48.966Z,0
2017-01-18T01:17:29.443Z,0
2017-01-18T01:18:09.973Z,0
2017-01-18T01:18:50.423Z,0
2017-01-18T01:19:30.885Z,0
2017-01-18T01:20:11.440Z,0
2017-01-18T01:20:51.862Z,0
2017-01-18T01:21:32.328Z,0
2017-01-18T01:22:12.833Z,0
2017-01-18T01:22:53.306Z,0
2017-01-18T01:23:33.799Z,0
2017-01-18T01:24:14.277Z,0
2017-01-18T01:24:54.743Z,0
2017-01-18T01:25:35.235Z,0
2017-01-18T01:26:15.735Z,0
2017-01-18T01:26:56.210Z,0
2017-01-18T01:27:36.735Z,0
2017-01-18T01:28:17.192Z,0
2017-01-18T01:28:57.722Z,0
2017-01-18T01:29:38.256Z,0
2017-01-18T01:30:18.838Z,0
2017-01-18T01:30:59.309Z,0
2017-01-18T01:31:39.780Z,0
2017-01-18T01:32:20.285Z,0
2017-01-18T01:33:00.834Z,0
2017-01-18T01:33:41.292Z,0
2017-01-18T01:34:21.844Z,0
2017-01-18T01:35:02.310Z,0
2017-01-18T01:35:42.778Z,0
2017-01-18T01:36:23.927Z,0
2017-01-18T01:37:04.415Z,0
2017-01-18T01:37:44.864Z,0
2017-01-18T01:38:26.237Z,0
2017-01-18T01:39:06.741Z,0
2017-01-18T01:39:47.237Z,0
2017-01-18T01:40:27.742Z,0
2017-01-18T01:41:08.837Z,0
2017-01-18T01:41:49.367Z,0
2017-01-18T01:42:29.877Z,0
2017-01-18T01:43:10.410Z,0
2017-01-18T01:43:50.856Z,0
2017-01-18T01:44:31.343Z,0
2017-01-18T01:45:11.875Z,0
2017-01-18T01:45:52.356Z,0
2017-01-18T01:46:33.669Z,0
2017-01-18T01:47:14.130Z,0
2017-01-18T01:47:54.599Z,0
2017-01-18T01:48:35.102Z,0
2017-01-18T01:49:15.564Z,0
2017-01-18T01:49:56.816Z,0
2017-01-18T01:50:37.318Z,0
2017-01-18T01:51:17.871Z,0
2017-01-18T01:51:58.364Z,0
2017-01-18T01:52:39.410Z,0
2017-01-18T01:53:19.932Z,0
2017-01-18T01:54:00.440Z,0
2017-01-18T01:54:41.910Z,0
2017-01-18T01:55:22.413Z,0
2017-01-18T01:56:02.915Z,0
2017-01-18T01:56:43.442Z,0
2017-01-18T01:57:23.927Z,0
2017-01-18T01:58:04.410Z,0
2017-01-18T01:58:44.880Z,0
2017-01-18T01:59:25.452Z,0
2017-01-18T02:00:05.897Z,0
2017-01-18T02:00:46.388Z,0
2017-01-18T02:01:26.897Z,0
2017-01-18T02:02:07.488Z,0
2017-01-18T02:02:47.968Z,0
2017-01-18T02:03:28.566Z,0
2017-01-18T02:04:09.124Z,0
2017-01-18T02:04:49.616Z,0
2017-01-18T02:05:30.094Z,0
2017-01-18T02:06:10.593Z,0
2017-01-18T02:06:51.055Z,0
2017-01-18T02:07:32.177Z,0
2017-01-18T02:08:12.696Z,0
2017-01-18T02:08:53.185Z,0
2017-01-18T02:09:33.685Z,0
2017-01-18T02:10:14.185Z,0
2017-01-18T02:10:54.682Z,0
2017-01-18T02:11:35.264Z,0
2017-01-18T02:12:15.799Z,0
2017-01-18T02:12:56.265Z,0
2017-01-18T02:13:36.773Z,0
2017-01-18T02:14:17.269Z,0
2017-01-18T02:14:57.779Z,0
2017-01-18T02:15:38.326Z,0
2017-01-18T02:16:18.801Z,0
2017-01-18T02:16:59.265Z,0
2017-01-18T02:17:39.756Z,0
2017-01-18T02:18:20.261Z,0
2017-01-18T02:19:00.804Z,0
2017-01-18T02:19:41.281Z,0
2017-01-18T02:20:21.740Z,0
2017-01-18T02:21:02.216Z,0
2017-01-18T02:21:42.712Z,0
2017-01-18T02:22:23.213Z,0
2017-01-18T02:23:03.762Z,0
2017-01-18T02:23:44.224Z,0
2017-01-18T02:24:24.731Z,0
2017-01-18T02:25:05.218Z,0
2017-01-18T02:25:45.782Z,0
2017-01-18T02:26:26.295Z,0
2017-01-18T02:27:06.783Z,0
2017-01-18T02:27:47.283Z,0
2017-01-18T02:28:27.749Z,0
2017-01-18T02:29:08.269Z,0
2017-01-18T02:29:48.769Z,0
2017-01-18T02:30:36.231Z,0
2017-01-18T02:31:16.728Z,0
2017-01-18T02:31:57.191Z,0
2017-01-18T02:32:37.700Z,0
2017-01-18T02:33:18.171Z,0
2017-01-18T02:33:58.669Z,0
2017-01-18T02:34:39.181Z,0
2017-01-18T02:35:19.681Z,0
2017-01-18T02:36:00.208Z,0
2017-01-18T02:36:40.691Z,0
2017-01-18T02:37:21.233Z,0
2017-01-18T02:38:02.334Z,0
2017-01-18T02:38:42.835Z,0
2017-01-18T02:39:23.326Z,0
2017-01-18T02:40:03.827Z,0
2017-01-18T02:40:44.271Z,0
2017-01-18T02:41:24.763Z,0
2017-01-18T02:42:05.276Z,0
2017-01-18T02:42:45.781Z,0
2017-01-18T02:43:26.249Z,0
2017-01-18T02:44:07.335Z,0
2017-01-18T02:44:47.779Z,0
2017-01-18T02:45:28.280Z,0
2017-01-18T02:46:09.704Z,0
2017-01-18T02:46:50.232Z,0
2017-01-18T02:47:30.735Z,0
2017-01-18T02:48:11.200Z,0
2017-01-18T02:48:51.671Z,0
2017-01-18T02:49:32.174Z,0
2017-01-18T02:50:13.654Z,0
2017-01-18T02:50:54.146Z,0
2017-01-18T02:51:34.678Z,0
2017-01-18T02:52:15.172Z,0
2017-01-18T02:52:55.690Z,0
2017-01-18T02:53:36.176Z,0
2017-01-18T02:54:16.627Z,0
2017-01-18T02:54:57.129Z,0
2017-01-18T02:55:37.585Z,0
2017-01-18T02:56:18.625Z,0
2017-01-18T02:56:59.083Z,0
2017-01-18T02:57:39.617Z,0
2017-01-18T02:58:20.077Z,0
2017-01-18T02:59:00.579Z,0
2017-01-18T02:59:41.071Z,0
2017-01-18T03:00:21.579Z,0
2017-01-18T03:01:02.072Z,0
2017-01-18T03:01:42.528Z,0
2017-01-18T03:02:23.028Z,0
2017-01-18T03:03:03.479Z,0
2017-01-18T03:03:44.055Z,0
2017-01-18T03:04:25.121Z,0
2017-01-18T03:05:05.632Z,0
2017-01-18T03:05:46.101Z,0
2017-01-18T03:06:26.637Z,0
2017-01-18T03:07:07.642Z,0
2017-01-18T03:07:48.176Z,0
2017-01-18T03:08:28.646Z,0
2017-01-18T03:09:09.138Z,0
2017-01-18T03:09:49.635Z,0
2017-01-18T03:10:30.115Z,0
2017-01-18T03:11:10.636Z,0
2017-01-18T03:11:51.188Z,0
2017-01-18T03:12:31.688Z,0
2017-01-18T03:13:13.052Z,0
2017-01-18T03:13:54.330Z,0
2017-01-18T03:14:35.416Z,0
2017-01-18T03:15:15.913Z,0
2017-01-18T03:15:56.394Z,0
2017-01-18T03:16:36.852Z,0
2017-01-18T03:17:17.420Z,0
2017-01-18T03:17:57.907Z,0
2017-01-18T03:18:38.394Z,0
2017-01-18T03:19:18.887Z,0
2017-01-18T03:19:59.393Z,0
2017-01-18T03:20:40.663Z,0
2017-01-18T03:21:21.132Z,0
2017-01-18T03:22:01.573Z,0
2017-01-18T03:22:42.045Z,0
2017-01-18T03:23:22.532Z,0
2017-01-18T03:24:03.750Z,0
2017-01-18T03:24:44.759Z,0
2017-01-18T03:25:25.270Z,0
2017-01-18T03:26:05.790Z,0
2017-01-18T03:26:46.271Z,0
2017-01-18T03:27:26.750Z,0
2017-01-18T03:28:07.253Z,0
2017-01-18T03:28:48.743Z,0
2017-01-18T03:29:29.251Z,0
2017-01-18T03:30:11.632Z,0
2017-01-18T03:30:52.088Z,0
2017-01-18T03:31:32.590Z,0
2017-01-18T03:32:13.056Z,0
2017-01-18T03:32:53.532Z,0
2017-01-18T03:33:34.014Z,0
2017-01-18T03:34:14.485Z,0
2017-01-18T03:34:55.022Z,0
2017-01-18T03:35:35.505Z,0
2017-01-18T03:36:16.007Z,0
2017-01-18T03:36:56.518Z,0
2017-01-18T03:37:36.974Z,0
2017-01-18T03:38:17.475Z,0
2017-01-18T03:38:57.949Z,0
2017-01-18T03:39:39.197Z,0
2017-01-18T03:40:20.543Z,0
2017-01-18T03:42:52.998Z,0
2017-01-18T03:43:37.478Z,0
2017-01-18T03:44:17.991Z,0
2017-01-18T03:45:01.963Z,0
2017-01-18T03:45:42.475Z,0
2017-01-18T03:46:25.786Z,0
2017-01-18T03:47:07.835Z,0
2017-01-18T03:47:53.748Z,0
2017-01-18T03:48:34.235Z,0
2017-01-18T03:49:14.743Z,0
2017-01-18T03:49:55.228Z,0
2017-01-18T03:50:35.683Z,0
2017-01-18T03:51:17.837Z,0
2017-01-18T03:51:58.349Z,0
2017-01-18T03:52:41.347Z,0
2017-01-18T03:53:21.836Z,0
2017-01-18T03:54:02.363Z,0
2017-01-18T03:54:47.544Z,0
2017-01-18T03:55:29.960Z,0
2017-01-18T03:56:10.565Z,0
2017-01-18T03:56:53.970Z,0
2017-01-18T03:57:39.290Z,0
2017-01-18T03:58:19.761Z,0
2017-01-18T03:59:03.982Z,0
2017-01-18T03:59:44.432Z,0
2017-01-18T04:00:24.898Z,0
2017-01-18T04:01:09.984Z,0
2017-01-18T04:01:51.448Z,0
2017-01-18T04:02:31.934Z,0
2017-01-18T04:03:12.379Z,0
2017-01-18T04:03:52.856Z,0
2017-01-18T04:04:35.093Z,0
2017-01-18T04:05:15.531Z,0
2017-01-18T04:05:57.964Z,0
2017-01-18T04:06:38.452Z,0
2017-01-18T04:07:21.666Z,0
2017-01-18T04:08:04.769Z,0
2017-01-18T04:08:46.853Z,0
2017-01-18T04:09:31.950Z,0
2017-01-18T04:10:12.437Z,0
2017-01-18T04:10:58.665Z,0
2017-01-18T04:11:40.784Z,0
2017-01-18T04:12:21.290Z,0
2017-01-18T04:13:01.990Z,0
2017-01-18T04:13:42.471Z,0
2017-01-18T04:14:22.939Z,0
2017-01-18T04:15:07.082Z,0
2017-01-18T04:15:47.794Z,0
2017-01-18T04:16:28.271Z,0
2017-01-18T04:17:08.779Z,0
2017-01-18T04:17:50.958Z,0
2017-01-18T04:18:31.492Z,0
2017-01-18T04:19:13.542Z,0
2017-01-18T04:19:54.023Z,0
2017-01-18T04:20:36.462Z,0
2017-01-18T04:21:16.936Z,0
2017-01-18T04:21:57.462Z,0
2017-01-18T04:22:37.958Z,0
2017-01-18T04:23:20.268Z,0
2017-01-18T04:24:05.463Z,0
2017-01-18T04:24:45.951Z,0
2017-01-18T04:25:26.465Z,0
2017-01-18T04:26:09.670Z,0
2017-01-18T04:26:50.203Z,0
2017-01-18T04:27:30.738Z,0
2017-01-18T04:28:15.545Z,0
2017-01-18T04:28:57.546Z,0
2017-01-18T04:29:38.009Z,0
2017-01-18T04:30:18.510Z,0
2017-01-18T04:31:00.709Z,0
2017-01-18T04:31:41.226Z,0
2017-01-18T04:32:21.684Z,0
2017-01-18T04:33:03.674Z,0
2017-01-18T04:33:44.146Z,0
2017-01-18T04:34:24.656Z,0
2017-01-18T04:35:06.663Z,0
2017-01-18T04:35:49.688Z,0
2017-01-18T04:36:32.868Z,0
2017-01-18T04:37:13.359Z,0
2017-01-18T04:37:55.421Z,0
2017-01-18T04:38:35.887Z,0
2017-01-18T04:39:18.616Z,0
2017-01-18T04:39:59.106Z,0
2017-01-18T04:40:42.536Z,0
2017-01-18T04:41:27.690Z,0
2017-01-18T04:42:08.179Z,0
2017-01-18T04:42:48.712Z,0
2017-01-18T04:43:29.197Z,0
2017-01-18T04:44:13.478Z,0
2017-01-18T04:44:55.082Z,0
2017-01-18T04:45:37.535Z,0
2017-01-18T04:46:19.962Z,0
2017-01-18T04:47:00.446Z,0
2017-01-18T04:47:40.915Z,0
2017-01-18T04:48:21.414Z,0
2017-01-18T04:49:01.905Z,0
2017-01-18T04:49:45.037Z,0
2017-01-18T04:50:25.654Z,0
2017-01-18T04:51:06.056Z,0
2017-01-18T04:51:48.356Z,0
2017-01-18T04:52:28.817Z,0
2017-01-18T04:53:09.316Z,0
2017-01-18T04:53:49.781Z,0
2017-01-18T04:54:30.257Z,0
2017-01-18T04:55:10.757Z,0
2017-01-18T04:55:51.213Z,0
2017-01-18T04:56:33.445Z,0
2017-01-18T04:57:13.942Z,0
2017-01-18T04:57:54.666Z,0
2017-01-18T04:58:35.171Z,0
2017-01-18T04:59:15.657Z,0
2017-01-18T04:59:56.131Z,0
2017-01-18T05:00:36.653Z,0
2017-01-18T05:01:19.866Z,0
2017-01-18T05:02:00.384Z,0
2017-01-18T05:02:40.839Z,0
2017-01-18T05:03:21.322Z,0
2017-01-18T05:04:01.803Z,0
2017-01-18T05:04:42.298Z,0
2017-01-18T05:05:25.707Z,0
2017-01-18T05:06:07.240Z,0
2017-01-18T05:06:47.697Z,0
2017-01-18T05:07:32.651Z,0
2017-01-18T05:08:13.150Z,0
2017-01-18T05:08:55.457Z,0
2017-01-18T05:09:37.838Z,0
2017-01-18T05:10:18.701Z,0
2017-01-18T05:11:00.787Z,0
2017-01-18T05:11:41.271Z,0
2017-01-18T05:12:24.949Z,0
2017-01-18T05:13:10.163Z,0
2017-01-18T05:13:50.674Z,0
2017-01-18T05:14:31.731Z,0
2017-01-18T05:15:12.243Z,0
2017-01-18T05:15:52.732Z,0
2017-01-18T05:16:33.214Z,0
2017-01-18T05:17:13.722Z,0
2017-01-18T05:17:54.177Z,0
2017-01-18T05:18:36.673Z,0
2017-01-18T05:19:17.172Z,0
2017-01-18T05:19:57.643Z,0
2017-01-18T05:20:38.813Z,0
2017-01-18T05:21:19.183Z,0
2017-01-18T05:22:02.188Z,0
2017-01-18T05:22:44.402Z,0
2017-01-18T05:23:26.334Z,0
2017-01-18T05:24:06.875Z,0
2017-01-18T05:24:47.360Z,0
2017-01-18T05:25:27.788Z,0
2017-01-18T05:26:09.075Z,0
2017-01-18T05:26:49.574Z,0
2017-01-18T05:27:30.042Z,0
2017-01-18T05:28:10.546Z,0
2017-01-18T05:28:51.031Z,0
2017-01-18T05:29:31.552Z,0
2017-01-18T05:30:12.077Z,0
2017-01-18T05:30:52.611Z,0
2017-01-18T05:31:34.165Z,0
2017-01-18T05:32:14.621Z,0
2017-01-18T05:32:55.118Z,0
2017-01-18T05:33:35.615Z,0
2017-01-18T05:34:16.166Z,0
2017-01-18T05:34:56.647Z,0
2017-01-18T05:35:37.141Z,0
2017-01-18T05:36:17.647Z,0
2017-01-18T05:36:58.134Z,0
2017-01-18T05:37:38.671Z,0
2017-01-18T05:38:19.178Z,0
2017-01-18T05:38:59.649Z,0
2017-01-18T05:39:40.115Z,0
2017-01-18T05:40:20.606Z,0
2017-01-18T05:41:03.953Z,0
2017-01-18T05:41:44.536Z,0
2017-01-18T05:42:27.795Z,0
2017-01-18T05:43:08.299Z,0
2017-01-18T05:43:48.774Z,0
2017-01-18T05:44:29.795Z,0
2017-01-18T05:45:10.237Z,0
2017-01-18T05:45:50.728Z,0
2017-01-18T05:46:31.192Z,0
2017-01-18T05:47:11.649Z,0
2017-01-18T05:47:52.162Z,0
2017-01-18T05:48:32.701Z,0
2017-01-18T05:49:13.196Z,0
2017-01-18T05:49:53.661Z,0
2017-01-18T05:50:34.181Z,0
2017-01-18T05:51:16.529Z,0
2017-01-18T05:51:57.024Z,0
2017-01-18T05:52:37.504Z,0
2017-01-18T05:53:17.999Z,0
2017-01-18T05:53:58.464Z,0
2017-01-18T05:54:38.952Z,0
2017-01-18T05:55:20.107Z,0
2017-01-18T05:56:02.540Z,0
2017-01-18T05:56:43.022Z,0
2017-01-18T05:57:25.972Z,0
2017-01-18T05:58:06.462Z,0
2017-01-18T05:58:46.922Z,0
2017-01-18T05:59:28.111Z,0
2017-01-18T06:00:11.533Z,0
2017-01-18T06:00:51.998Z,0
2017-01-18T06:01:32.449Z,0
2017-01-18T06:02:13.894Z,0
2017-01-18T06:02:54.411Z,0
2017-01-18T06:03:34.840Z,0
2017-01-18T06:04:15.357Z,0
2017-01-18T06:04:55.837Z,0
2017-01-18T06:05:36.356Z,0
2017-01-18T06:06:16.825Z,0
2017-01-18T06:06:57.307Z,0
2017-01-18T06:07:37.839Z,0
2017-01-18T06:08:18.334Z,0
2017-01-18T06:08:58.819Z,0
2017-01-18T06:09:39.304Z,0
2017-01-18T06:10:19.816Z,0
2017-01-18T06:11:00.295Z,0
2017-01-18T06:11:43.347Z,0
2017-01-18T06:12:23.826Z,0
2017-01-18T06:13:06.949Z,0
2017-01-18T06:13:47.434Z,0
2017-01-18T06:14:27.920Z,0
2017-01-18T06:15:08.378Z,0
2017-01-18T06:15:48.878Z,0
2017-01-18T06:16:29.346Z,0
2017-01-18T06:17:09.807Z,0
2017-01-18T06:17:50.279Z,0
2017-01-18T06:18:30.977Z,0
2017-01-18T06:19:11.756Z,0
2017-01-18T06:19:53.301Z,0
2017-01-18T06:20:34.821Z,0
2017-01-18T06:21:16.923Z,0
2017-01-18T06:22:00.551Z,0
2017-01-18T06:22:41.053Z,0
2017-01-18T06:23:21.515Z,0
2017-01-18T06:24:02.027Z,0
2017-01-18T06:24:42.760Z,0
2017-01-18T06:25:23.287Z,0
2017-01-18T06:26:03.855Z,0
2017-01-18T06:26:44.300Z,0
2017-01-18T06:27:24.793Z,0
2017-01-18T06:28:05.310Z,0
2017-01-18T06:28:45.778Z,0
2017-01-18T06:29:26.382Z,0
2017-01-18T06:30:06.888Z,0
2017-01-18T06:30:48.951Z,0
2017-01-18T06:31:30.223Z,0
2017-01-18T06:32:10.789Z,0
2017-01-18T06:32:56.763Z,0
2017-01-18T06:33:37.246Z,0
2017-01-18T06:34:17.715Z,0
2017-01-18T06:34:58.212Z,0
2017-01-18T06:35:38.784Z,0
2017-01-18T06:36:19.994Z,0
2017-01-18T06:37:00.485Z,0
2017-01-18T06:37:40.952Z,0
2017-01-18T06:38:21.496Z,0
2017-01-18T06:39:02.020Z,0
2017-01-18T06:39:42.460Z,0
2017-01-18T06:40:22.946Z,0
2017-01-18T06:41:03.427Z,0
2017-01-18T06:41:43.902Z,0
2017-01-18T06:42:24.580Z,0
2017-01-18T06:43:05.062Z,0
2017-01-18T06:43:45.547Z,0
2017-01-18T06:44:27.701Z,0
2017-01-18T06:45:08.213Z,0
2017-01-18T06:45:48.723Z,0
2017-01-18T06:46:31.819Z,0
2017-01-18T06:47:12.293Z,0
2017-01-18T06:47:52.795Z,0
2017-01-18T06:48:33.898Z,0
2017-01-18T06:49:17.486Z,0
2017-01-18T06:49:58.027Z,0
2017-01-18T06:50:38.505Z,0
2017-01-18T06:51:19.000Z,0
2017-01-18T06:52:06.413Z,0
2017-01-18T06:52:46.334Z,0
2017-01-18T06:53:26.835Z,0
2017-01-18T06:54:07.287Z,0
2017-01-18T06:54:47.836Z,4
2017-01-18T06:55:28.301Z,4
2017-01-18T06:56:08.766Z,4
2017-01-18T06:58:51.192Z,4
2017-01-18T06:59:31.451Z,4
2017-01-18T07:00:11.939Z,4
2017-01-18T07:00:52.958Z,4
2017-01-18T07:01:33.521Z,4
2017-01-18T07:02:14.059Z,4
2017-01-18T07:02:54.645Z,8
2017-01-18T07:03:35.111Z,4
2017-01-18T07:04:15.615Z,8
2017-01-18T07:04:56.153Z,4
2017-01-18T07:05:36.729Z,8
2017-01-18T07:06:17.192Z,12
2017-01-18T07:06:59.350Z,8
2017-01-18T07:07:39.952Z,12
2017-01-18T07:08:20.421Z,12
2017-01-18T07:09:00.910Z,12
2017-01-18T07:09:41.440Z,12
2017-01-18T07:10:21.923Z,12
2017-01-18T07:11:02.409Z,16
2017-01-18T07:11:42.879Z,16
2017-01-18T07:12:23.418Z,16
2017-01-18T07:13:03.904Z,20
2017-01-18T07:13:44.457Z,24
2017-01-18T07:14:24.933Z,24
2017-01-18T07:15:05.415Z,24
2017-01-18T07:15:45.986Z,28
2017-01-18T07:16:26.466Z,32
2017-01-18T07:17:06.993Z,32
2017-01-18T07:17:47.538Z,36
2017-01-18T07:18:28.006Z,40
2017-01-18T07:19:08.799Z,40
2017-01-18T07:19:49.766Z,44
2017-01-18T07:20:30.271Z,48
2017-01-18T07:21:10.746Z,48
2017-01-18T07:21:51.265Z,56
2017-01-18T07:22:31.720Z,60
2017-01-18T07:23:12.176Z,64
2017-01-18T07:23:52.685Z,68
2017-01-18T07:24:33.151Z,76
2017-01-18T07:25:13.644Z,80
2017-01-18T07:25:54.144Z,88
2017-01-18T07:26:34.645Z,96
2017-01-18T07:27:15.573Z,100
2017-01-18T07:27:56.101Z,108
2017-01-18T07:30:14.554Z,132
2017-01-18T07:30:54.951Z,144
2017-01-18T07:31:35.419Z,152
2017-01-18T07:32:15.883Z,156
2017-01-18T07:32:56.356Z,168
2017-01-18T07:33:36.854Z,176
2017-01-18T07:34:17.383Z,188
2017-01-18T07:34:57.888Z,200
2017-01-18T07:35:39.825Z,208
2017-01-18T07:36:21.102Z,216
2017-01-18T07:37:01.565Z,224
2017-01-18T07:37:47.693Z,236
2017-01-18T07:38:28.298Z,248
2017-01-18T07:39:09.508Z,260
2017-01-18T07:39:51.999Z,272
2017-01-18T07:40:35.967Z,284
2017-01-18T07:41:20.678Z,300
2017-01-18T07:42:03.181Z,316
2017-01-18T07:42:52.030Z,336
2017-01-18T07:43:32.809Z,352
2017-01-18T07:44:13.522Z,364
2017-01-18T07:44:54.593Z,384
2017-01-18T07:45:35.655Z,396
2017-01-18T07:46:16.555Z,416
2017-01-18T07:46:57.391Z,432
2017-01-18T07:47:39.185Z,448
2017-01-18T07:48:19.923Z,464
2017-01-18T07:49:00.433Z,484
2017-01-18T07:49:40.964Z,496
2017-01-18T07:50:21.447Z,516
2017-01-18T07:51:02.158Z,536
2017-01-18T07:51:42.537Z,552
2017-01-18T07:52:23.061Z,568
2017-01-18T07:53:03.581Z,588
2017-01-18T07:53:44.142Z,612
2017-01-18T07:54:24.612Z,636
2017-01-18T07:55:05.113Z,660
2017-01-18T07:55:45.586Z,684
2017-01-18T07:56:26.095Z,716
2017-01-18T07:57:06.603Z,740
2017-01-18T07:57:47.048Z,764
2017-01-18T07:58:27.571Z,792
2017-01-18T07:59:08.011Z,820
2017-01-18T07:59:48.547Z,844
2017-01-18T08:00:32.286Z,872
2017-01-18T08:01:14.879Z,896
2017-01-18T08:01:55.430Z,916
2017-01-18T08:02:35.912Z,932
2017-01-18T08:03:16.395Z,948
2017-01-18T08:03:56.901Z,964
2017-01-18T08:04:37.469Z,984
2017-01-18T08:05:17.970Z,1008
2017-01-18T08:06:01.191Z,1032
2017-01-18T08:06:47.578Z,1056
2017-01-18T08:07:28.574Z,1076
2017-01-18T08:08:09.043Z,1092
2017-01-18T08:08:51.424Z,1100
2017-01-18T08:09:35.919Z,1108
2017-01-18T08:10:17.659Z,1112
2017-01-18T08:10:59.263Z,1116
2017-01-18T08:11:39.834Z,1120
2017-01-18T08:12:20.315Z,1116
2017-01-18T08:13:01.934Z,1120
2017-01-18T08:13:46.794Z,1124
2017-01-18T08:14:28.093Z,1120
2017-01-18T08:15:08.621Z,1116
2017-01-18T08:15:50.560Z,1116
2017-01-18T08:16:31.077Z,1104
2017-01-18T08:17:12.251Z,1092
2017-01-18T08:17:52.938Z,1072
2017-01-18T08:18:33.879Z,1056
2017-01-18T08:19:16.424Z,1044
2017-01-18T08:19:56.964Z,1040
2017-01-18T08:20:39.506Z,1044
2017-01-18T08:21:22.764Z,1056
2017-01-18T08:22:10.967Z,1068
2017-01-18T08:22:56.214Z,1080
2017-01-18T08:23:43.364Z,1100
2017-01-18T08:28:27.996Z,1196
2017-01-18T08:29:19.249Z,1204
2017-01-18T08:30:07.479Z,1216
2017-01-18T08:30:47.370Z,1264
2017-01-18T08:31:28.125Z,1272
2017-01-18T08:32:08.580Z,1284
2017-01-18T08:32:55.400Z,1300
2017-01-18T08:33:42.454Z,1320
2017-01-18T08:34:33.973Z,1332
2017-01-18T08:35:20.933Z,1348
2017-01-18T08:36:10.769Z,1368
2017-01-18T08:36:59.401Z,1380
2017-01-18T08:37:43.226Z,1392
2017-01-18T08:38:32.254Z,1396
2017-01-18T08:39:30.404Z,1408
2017-01-18T08:40:20.219Z,1416
2017-01-18T08:41:09.332Z,1420
2017-01-18T08:41:53.117Z,1424
2017-01-18T08:46:09.794Z,1472
2017-01-18T08:47:09.076Z,1492
2017-01-18T08:47:58.285Z,1516
2017-01-18T08:48:55.198Z,1540
2017-01-18T08:49:37.555Z,1560
2017-01-18T08:50:18.105Z,1580
2017-01-18T08:51:01.054Z,1592
2017-01-18T08:51:41.623Z,1604
2017-01-18T08:52:22.145Z,1612
2017-01-18T08:53:02.634Z,1624
2017-01-18T08:53:43.176Z,1640
2017-01-18T08:54:25.257Z,1648
2017-01-18T08:55:05.763Z,1660
2017-01-18T08:55:46.589Z,1668
2017-01-18T08:56:28.092Z,1680
2017-01-18T08:57:08.957Z,1692
2017-01-18T08:57:49.814Z,1708
2017-01-18T08:58:31.089Z,1720
2017-01-18T08:59:11.699Z,1736
2017-01-18T08:59:52.575Z,1756
2017-01-18T09:00:33.574Z,1776
2017-01-18T09:01:14.466Z,1800
2017-01-18T09:01:55.047Z,1820
2017-01-18T09:02:35.581Z,1836
2017-01-18T09:03:22.113Z,1856
2017-01-18T09:04:09.660Z,1876
2017-01-18T09:05:00.702Z,1892
2017-01-18T09:05:53.774Z,1908
2017-01-18T09:08:51.103Z,1960
2017-01-18T09:09:37.643Z,1984
2017-01-18T09:10:23.742Z,1988
2017-01-18T09:11:14.743Z,2024
2017-01-18T09:12:02.940Z,2036
2017-01-18T09:12:50.049Z,2052
2017-01-18T09:13:30.332Z,2072
2017-01-18T09:14:10.839Z,2080
2017-01-18T09:14:51.330Z,2084
2017-01-18T09:15:31.832Z,2100
2017-01-18T09:16:12.329Z,2112
2017-01-18T09:16:52.859Z,2124
2017-01-18T09:17:33.430Z,2140
2017-01-18T09:18:13.971Z,2152
2017-01-18T09:18:54.804Z,2164
2017-01-18T09:19:35.333Z,2176
2017-01-18T09:20:15.941Z,2188
2017-01-18T09:20:56.466Z,2200
2017-01-18T09:21:36.895Z,2220
2017-01-18T09:22:17.382Z,2240
2017-01-18T09:22:57.878Z,2256
2017-01-18T09:23:38.487Z,2284
2017-01-18T09:24:19.002Z,2296
2017-01-18T09:24:59.644Z,2300
2017-01-18T09:25:40.231Z,2300
2017-01-18T09:26:20.742Z,2296
2017-01-18T09:27:01.215Z,2288
2017-01-18T09:27:41.814Z,2288
2017-01-18T09:28:22.354Z,2284
2017-01-18T09:29:02.834Z,2284
2017-01-18T09:29:43.770Z,2272
2017-01-18T09:30:24.631Z,2276
2017-01-18T09:31:05.150Z,2284
2017-01-18T09:31:45.638Z,2288
2017-01-18T09:32:26.246Z,2244
2017-01-18T09:33:07.752Z,2260
2017-01-18T09:33:48.452Z,2280
2017-01-18T09:34:28.942Z,2296
2017-01-18T09:35:09.372Z,2380
2017-01-18T09:35:49.939Z,2396
2017-01-18T09:36:30.435Z,2432
2017-01-18T09:37:10.895Z,2460
2017-01-18T09:37:51.490Z,2504
2017-01-18T09:38:32.515Z,2544
2017-01-18T09:39:14.952Z,2592
2017-01-18T09:39:56.658Z,2648
2017-01-18T09:40:37.187Z,2692
2017-01-18T09:41:18.753Z,2748
2017-01-18T09:41:59.321Z,2800
2017-01-18T09:42:40.598Z,2852
2017-01-18T09:43:21.106Z,2920
2017-01-18T09:44:01.699Z,2992
2017-01-18T09:44:42.330Z,3072
2017-01-18T09:45:22.868Z,3148
2017-01-18T09:46:03.360Z,3228
2017-01-18T09:46:43.847Z,3304
2017-01-18T09:47:24.346Z,3364
2017-01-18T09:48:04.859Z,3456
2017-01-18T09:48:45.400Z,3524
2017-01-18T09:49:26.485Z,3616
2017-01-18T09:50:06.987Z,3692
2017-01-18T09:50:47.603Z,3772
2017-01-18T09:51:27.960Z,3848
2017-01-18T09:52:08.451Z,3908
2017-01-18T09:53:00.671Z,3940
2017-01-18T09:53:44.870Z,4000
2017-01-18T09:54:25.347Z,4040
2017-01-18T09:55:05.849Z,4088
2017-01-18T09:55:46.364Z,4120
2017-01-18T09:56:27.074Z,4148
2017-01-18T09:57:07.511Z,4188
2017-01-18T09:57:48.043Z,4156
2017-01-18T09:58:28.641Z,4148
2017-01-18T09:59:09.169Z,4112
2017-01-18T09:59:49.657Z,3988
2017-01-18T10:00:30.174Z,3844
2017-01-18T10:01:10.720Z,3672
2017-01-18T10:01:51.167Z,3544
2017-01-18T10:02:31.659Z,3424
2017-01-18T10:03:12.192Z,3328
2017-01-18T10:03:52.703Z,3284
2017-01-18T10:06:22.390Z,3316
2017-01-18T10:07:02.520Z,3356
2017-01-18T10:07:43.059Z,3400
2017-01-18T10:08:23.536Z,3448
2017-01-18T10:09:04.050Z,3492
2017-01-18T10:09:44.626Z,3536
2017-01-18T10:10:25.164Z,3572
2017-01-18T10:11:07.810Z,3616